To NAV CANADA Home Page Login to a new session Search on AWWS site Feedback and Comments Disclaimer Vers la page française équivalente Tips FAQ What's new on the site To the Forecasts and Observations / NOTAM section To "File a Flight Plan" website Publications and other links Update of the User's profile FIC Telephone Numbers My Weather Data Folder Route Weather Data Regional Weather Data Local Weather Data To the Forecasts and Observations / NOTAM section
Request Generated 08/04/2015 at 11:42:13 UTC . Weather information available at that time is displayed.

METAR/TAF

GREENWOOD/NS    

METAR CYZX 041100Z 19007KT 15SM FEW028 SCT250 23/21 A2989 RMK CU1CI2 WNDY HILL 19009KT SLP121=
METAR CYZX 041000Z 19005KT 15SM FEW028 SCT250 22/21 A2989 RMK CU1CI2 WNDY HILL 21007KT SLP120=
METAR CYZX 040900Z 24004KT 15SM FEW028 SCT250 22/21 A2988 RMK CU1CI3 WNDY HILL 20008KT CU TR MDT CU SE SLP118=

TAF CYZX 041130Z 0412/0512 20008KT P6SM FEW030 SCT250
FM041500 20008KT P6SM BKN030 OVC080 TEMPO 0415/0424 P6SM -SHRA
PROB30 0418/0424 2SM TSRA BR BKN020 OVC030CB
FM050000 VRB03KT P6SM SCT012 OVC025 TEMPO 0500/0512 SCT008 OVC012
RMK NXT FCST BY 041800Z=
Your time UTC time
Weather data provided by Environment Canada and NAV CANADA